Terminal Aerodrome Forecast
Issued by NWS

Home | Current Version | Previous Version | Text Only | Print | Product List | Glossary On
Versions: 1 2 3 4 5 6 7 8 9 10 11 12 13
142
FTUS44 KLIX 180520
TAFGPT
TAF
KGPT 180520Z 1806/1906 01007KT P6SM SKC
     FM182300 35004KT P6SM FEW250=

USA.gov is the U.S. government's official web portal to all federal, state and local government web resources and services.